Impacts TAF Board INFO
FOR SITUATIONAL AWARENESS. NOT TO BE USED FOR FLIGHT PLANNING PURPOSES.
IDs:

KPIT - Pittsburgh Intl, PA, US

Issued at 1901 UTC 16 Aug 2018
Updated at 2019 UTC 16 Aug 2018
Potential Impact None Slight Moderate High
Time2004Z 16/21Z 16/22Z 16/23Z 17/00Z 17/01Z 17/02Z 17/03Z 17/04Z 17/05Z 17/06Z 17/07Z 17/08Z 17/09Z>>
Type OBS PRVL PRVL PRVL PRVL PRVL PRVL PRVL PRVL PRVL PRVL PRVL PRVL PRVL
VIS 10 >6 >6 >6 >6 >6 >6 5 5 5 5 5 5 5
CIG 150 60 60 60 60 60 60 80 80 80 80 80 80 80
Cover BKN BKN BKN BKN BKN BKN BKN OVC OVC OVC OVC OVC OVC OVC
FltCat VFR VFR VFR VFR VFR VFR VFR MVFR MVFR MVFR MVFR MVFR MVFR MVFR
WX -- VCTS VCTS VCTS VCTS VCTS VCTS -SHRA BR -SHRA BR -SHRA BR -SHRA BR -SHRA BR -SHRA BR -SHRA BR
WDir 260 220 220 220 220 220 220 180 180 180 180 180 180 180
WSpd 5 8 8 8 8 8 8 5 5 5 5 5 5 5
WGst -- -- -- -- -- -- -- -- -- -- -- -- -- --

Raw TAF
KPIT 161901Z 1619/1724 23015G28KT 1/2SM +TSRA BKN025 BKN035CB
  FM161915 22008KT P6SM VCTS SCT035CB BKN060
  FM170300 18005KT 5SM -SHRA BR SCT015 OVC080
  FM171200 21008KT P6SM VCSH OVC015
  FM171800 24010G18KT P6SM VCTS OVC025CB


Raw METAR
KPIT 162004Z 26005KT 10SM FEW028 SCT060 BKN150 23/22 A3009 RMK AO2 LTG DSNT NE-SE TSE03 T02280217
KPIT 161951Z 26003KT 10SM TS FEW027 FEW045CB BKN060 BKN130 22/21 A3010 RMK AO2 PK WND 28033/1857 LTG DSNT N-SE RAE25 SLP191 OCNL LTGICCG NE-E TS NE-E MOV NE P0058 T02170211
KPIT 161909Z 28010KT 4SM R28R/2400VP6000FT TSRA BR SCT017 BKN031CB OVC070 20/20 A3012 RMK AO2 PK WND 28033/1857 LTG DSNT W FRQ LTGICCG OHD TS OHD MOV NE P0058 T02000200
KPIT 161855Z 29025KT 1/2SM R28R/2800VP6000FT +TSRA FG BKN025 BKN038CB OVC045 23/21 A3013 RMK AO2 PK WND 29030/1855 LTG DSNT SW AND W FRG LTGICCG OHD TS OHD MOV NE P0000 T02280211 VISNO SE
KPIT 161851Z 31014KT 2SM +TSRA SCT029 BKN039CB OVC050 24/21 A3013 RMK AO2 LTG DSNT SW AND W RAB48 TSB28 SLP200 FRQ LTGICCG SW-NW TS SW-NW MOV NE P0000 T02440206 VISNO SE $
KPIT 161828Z 25003KT 10SM TS SCT042CB BKN055 OVC130 24/20 A3012 RMK AO2 LTG DSNT W TSB28 OCNL LTGCG SW TS SW MOV NE T02440200 VISNO SE $
KPIT 161751Z 00000KT 10SM FEW050 BKN130 OVC200 24/20 A3012 RMK AO2 LTG DSNT SW SLP198 T02440200 10250 20206 58001

METAR Board
Radar Display
Forecast Discussion

FOR SITUATIONAL AWARENESS. NOT TO BE USED FOR FLIGHT PLANNING PURPOSES.